sensor_id;sensor_type;location;lat;lon;timestamp;P1;durP1;ratioP1;P2;durP2;ratioP2
44197;SDS011;30157;55.512;37.764;2024-01-16T00:01:59;16.65;;;9.60;;
44197;SDS011;30157;55.512;37.764;2024-01-16T00:04:25;20.92;;;12.13;;
44197;SDS011;30157;55.512;37.764;2024-01-16T00:06:55;20.10;;;11.80;;
44197;SDS011;30157;55.512;37.764;2024-01-16T00:09:21;19.27;;;10.95;;
44197;SDS011;30157;55.512;37.764;2024-01-16T00:11:47;19.08;;;10.90;;
44197;SDS011;30157;55.512;37.764;2024-01-16T00:14:13;19.40;;;10.77;;
44197;SDS011;30157;55.512;37.764;2024-01-16T00:16:45;21.08;;;11.50;;
44197;SDS011;30157;55.512;37.764;2024-01-16T00:19:12;20.80;;;11.82;;
44197;SDS011;30157;55.512;37.764;2024-01-16T00:21:38;21.77;;;12.25;;
44197;SDS011;30157;55.512;37.764;2024-01-16T00:24:08;18.63;;;9.90;;
44197;SDS011;30157;55.512;37.764;2024-01-16T00:26:34;20.67;;;11.50;;
44197;SDS011;30157;55.512;37.764;2024-01-16T00:28:59;21.00;;;11.85;;
44197;SDS011;30157;55.512;37.764;2024-01-16T00:31:26;19.58;;;11.45;;
44197;SDS011;30157;55.512;37.764;2024-01-16T00:33:52;20.15;;;10.90;;
44197;SDS011;30157;55.512;37.764;2024-01-16T00:36:17;23.95;;;11.90;;
44197;SDS011;30157;55.512;37.764;2024-01-16T00:38:44;23.85;;;12.90;;
44197;SDS011;30157;55.512;37.764;2024-01-16T00:41:10;21.85;;;11.35;;
44197;SDS011;30157;55.512;37.764;2024-01-16T00:43:38;18.40;;;11.23;;
44197;SDS011;30157;55.512;37.764;2024-01-16T00:46:03;21.10;;;12.18;;
44197;SDS011;30157;55.512;37.764;2024-01-16T00:48:29;21.23;;;11.35;;
44197;SDS011;30157;55.512;37.764;2024-01-16T00:50:55;21.02;;;12.05;;
44197;SDS011;30157;55.512;37.764;2024-01-16T00:53:21;20.50;;;11.45;;
44197;SDS011;30157;55.512;37.764;2024-01-16T00:55:46;20.80;;;11.82;;
44197;SDS011;30157;55.512;37.764;2024-01-16T00:58:12;20.02;;;10.77;;
44197;SDS011;30157;55.512;37.764;2024-01-16T01:00:38;20.08;;;11.52;;
44197;SDS011;30157;55.512;37.764;2024-01-16T01:03:04;20.83;;;10.75;;
44197;SDS011;30157;55.512;37.764;2024-01-16T01:05:30;19.90;;;10.50;;
44197;SDS011;30157;55.512;37.764;2024-01-16T01:07:56;19.23;;;10.13;;
44197;SDS011;30157;55.512;37.764;2024-01-16T01:10:22;19.02;;;10.27;;
44197;SDS011;30157;55.512;37.764;2024-01-16T01:12:49;21.60;;;10.73;;
44197;SDS011;30157;55.512;37.764;2024-01-16T01:15:16;18.33;;;9.77;;
44197;SDS011;30157;55.512;37.764;2024-01-16T01:17:41;21.02;;;10.88;;
44197;SDS011;30157;55.512;37.764;2024-01-16T01:20:08;20.98;;;11.73;;
44197;SDS011;30157;55.512;37.764;2024-01-16T01:22:34;20.08;;;10.93;;
44197;SDS011;30157;55.512;37.764;2024-01-16T01:25:00;19.17;;;10.32;;
44197;SDS011;30157;55.512;37.764;2024-01-16T01:27:27;19.27;;;10.10;;
44197;SDS011;30157;55.512;37.764;2024-01-16T01:29:52;21.13;;;11.15;;
44197;SDS011;30157;55.512;37.764;2024-01-16T01:32:18;18.85;;;9.65;;
44197;SDS011;30157;55.512;37.764;2024-01-16T01:34:44;15.65;;;10.20;;
44197;SDS011;30157;55.512;37.764;2024-01-16T01:37:09;18.33;;;9.73;;
44197;SDS011;30157;55.512;37.764;2024-01-16T01:39:35;17.05;;;10.18;;
44197;SDS011;30157;55.512;37.764;2024-01-16T01:42:01;17.52;;;9.50;;
44197;SDS011;30157;55.512;37.764;2024-01-16T01:44:26;19.10;;;10.40;;
44197;SDS011;30157;55.512;37.764;2024-01-16T01:46:55;18.17;;;10.02;;
44197;SDS011;30157;55.512;37.764;2024-01-16T01:49:21;18.13;;;9.48;;
44197;SDS011;30157;55.512;37.764;2024-01-16T01:51:48;19.33;;;10.25;;
44197;SDS011;30157;55.512;37.764;2024-01-16T01:54:15;18.10;;;9.45;;
44197;SDS011;30157;55.512;37.764;2024-01-16T01:56:45;20.13;;;11.18;;
44197;SDS011;30157;55.512;37.764;2024-01-16T01:59:17;19.10;;;10.13;;
44197;SDS011;30157;55.512;37.764;2024-01-16T02:01:47;16.42;;;9.43;;
44197;SDS011;30157;55.512;37.764;2024-01-16T02:04:16;17.95;;;10.02;;
44197;SDS011;30157;55.512;37.764;2024-01-16T02:06:44;20.67;;;10.65;;
44197;SDS011;30157;55.512;37.764;2024-01-16T02:09:10;17.30;;;8.52;;
44197;SDS011;30157;55.512;37.764;2024-01-16T02:11:39;18.08;;;9.65;;
44197;SDS011;30157;55.512;37.764;2024-01-16T02:14:07;16.73;;;9.07;;
44197;SDS011;30157;55.512;37.764;2024-01-16T02:16:36;15.57;;;9.18;;
44197;SDS011;30157;55.512;37.764;2024-01-16T02:19:07;19.23;;;9.65;;
44197;SDS011;30157;55.512;37.764;2024-01-16T02:21:37;19.30;;;10.25;;
44197;SDS011;30157;55.512;37.764;2024-01-16T02:24:08;19.33;;;11.23;;
44197;SDS011;30157;55.512;37.764;2024-01-16T02:26:37;17.00;;;10.48;;
44197;SDS011;30157;55.512;37.764;2024-01-16T02:29:05;19.92;;;11.52;;
44197;SDS011;30157;55.512;37.764;2024-01-16T02:31:32;18.77;;;11.00;;
44197;SDS011;30157;55.512;37.764;2024-01-16T02:33:58;20.17;;;11.18;;
44197;SDS011;30157;55.512;37.764;2024-01-16T02:36:24;20.13;;;11.27;;
44197;SDS011;30157;55.512;37.764;2024-01-16T02:38:51;20.13;;;11.35;;
44197;SDS011;30157;55.512;37.764;2024-01-16T02:41:17;21.38;;;12.20;;
44197;SDS011;30157;55.512;37.764;2024-01-16T02:43:44;20.70;;;10.70;;
44197;SDS011;30157;55.512;37.764;2024-01-16T02:46:10;20.35;;;11.13;;
44197;SDS011;30157;55.512;37.764;2024-01-16T02:48:36;20.60;;;10.77;;
44197;SDS011;30157;55.512;37.764;2024-01-16T02:51:02;17.63;;;9.73;;
44197;SDS011;30157;55.512;37.764;2024-01-16T02:53:31;21.27;;;11.05;;
44197;SDS011;30157;55.512;37.764;2024-01-16T02:55:57;17.90;;;10.52;;
44197;SDS011;30157;55.512;37.764;2024-01-16T02:58:27;19.40;;;10.93;;
44197;SDS011;30157;55.512;37.764;2024-01-16T03:00:53;19.88;;;10.30;;
44197;SDS011;30157;55.512;37.764;2024-01-16T03:03:19;19.13;;;10.63;;
44197;SDS011;30157;55.512;37.764;2024-01-16T03:05:46;20.05;;;11.50;;
44197;SDS011;30157;55.512;37.764;2024-01-16T03:08:12;18.67;;;11.05;;
44197;SDS011;30157;55.512;37.764;2024-01-16T03:10:38;18.45;;;10.18;;
44197;SDS011;30157;55.512;37.764;2024-01-16T03:13:04;20.25;;;11.65;;
44197;SDS011;30157;55.512;37.764;2024-01-16T03:15:29;21.17;;;11.98;;
44197;SDS011;30157;55.512;37.764;2024-01-16T03:17:58;18.10;;;10.18;;
44197;SDS011;30157;55.512;37.764;2024-01-16T03:20:28;19.63;;;10.35;;
44197;SDS011;30157;55.512;37.764;2024-01-16T03:22:54;22.25;;;11.55;;
44197;SDS011;30157;55.512;37.764;2024-01-16T03:25:20;19.73;;;11.05;;
44197;SDS011;30157;55.512;37.764;2024-01-16T03:27:47;20.33;;;10.90;;
44197;SDS011;30157;55.512;37.764;2024-01-16T03:30:13;22.73;;;11.55;;
44197;SDS011;30157;55.512;37.764;2024-01-16T03:32:40;14.68;;;6.43;;
44197;SDS011;30157;55.512;37.764;2024-01-16T03:35:06;21.30;;;11.10;;
44197;SDS011;30157;55.512;37.764;2024-01-16T03:37:32;21.58;;;11.95;;
44197;SDS011;30157;55.512;37.764;2024-01-16T03:39:59;21.70;;;11.35;;
44197;SDS011;30157;55.512;37.764;2024-01-16T03:42:26;21.52;;;11.52;;
44197;SDS011;30157;55.512;37.764;2024-01-16T03:44:52;19.83;;;11.27;;
44197;SDS011;30157;55.512;37.764;2024-01-16T03:47:18;22.95;;;12.00;;
44197;SDS011;30157;55.512;37.764;2024-01-16T03:49:44;24.10;;;12.30;;
44197;SDS011;30157;55.512;37.764;2024-01-16T03:52:10;23.75;;;12.73;;
44197;SDS011;30157;55.512;37.764;2024-01-16T03:54:36;24.10;;;11.20;;
44197;SDS011;30157;55.512;37.764;2024-01-16T03:57:01;21.08;;;11.38;;
44197;SDS011;30157;55.512;37.764;2024-01-16T03:59:27;24.05;;;12.13;;
44197;SDS011;30157;55.512;37.764;2024-01-16T04:01:53;20.52;;;10.48;;
44197;SDS011;30157;55.512;37.764;2024-01-16T04:04:19;22.88;;;12.98;;
44197;SDS011;30157;55.512;37.764;2024-01-16T04:06:45;25.73;;;12.77;;
44197;SDS011;30157;55.512;37.764;2024-01-16T04:09:12;24.80;;;12.35;;
44197;SDS011;30157;55.512;37.764;2024-01-16T04:11:40;24.58;;;13.10;;
44197;SDS011;30157;55.512;37.764;2024-01-16T04:14:06;22.25;;;12.30;;
44197;SDS011;30157;55.512;37.764;2024-01-16T04:16:32;23.23;;;11.80;;
44197;SDS011;30157;55.512;37.764;2024-01-16T04:18:58;24.23;;;12.88;;
44197;SDS011;30157;55.512;37.764;2024-01-16T04:21:24;25.58;;;12.60;;
44197;SDS011;30157;55.512;37.764;2024-01-16T04:23:50;23.83;;;13.10;;
44197;SDS011;30157;55.512;37.764;2024-01-16T04:26:16;24.33;;;12.73;;
44197;SDS011;30157;55.512;37.764;2024-01-16T04:28:42;24.95;;;12.57;;
44197;SDS011;30157;55.512;37.764;2024-01-16T04:31:08;24.02;;;12.55;;
44197;SDS011;30157;55.512;37.764;2024-01-16T04:33:33;25.05;;;13.15;;
44197;SDS011;30157;55.512;37.764;2024-01-16T04:35:59;24.98;;;12.20;;
44197;SDS011;30157;55.512;37.764;2024-01-16T04:38:25;25.15;;;12.52;;
44197;SDS011;30157;55.512;37.764;2024-01-16T04:40:51;26.65;;;12.63;;
44197;SDS011;30157;55.512;37.764;2024-01-16T04:43:16;24.67;;;12.95;;
44197;SDS011;30157;55.512;37.764;2024-01-16T04:45:42;27.60;;;13.73;;
44197;SDS011;30157;55.512;37.764;2024-01-16T04:48:08;27.40;;;13.75;;
44197;SDS011;30157;55.512;37.764;2024-01-16T04:50:34;27.00;;;12.98;;
44197;SDS011;30157;55.512;37.764;2024-01-16T04:53:03;23.42;;;12.10;;
44197;SDS011;30157;55.512;37.764;2024-01-16T04:55:29;24.67;;;12.07;;
44197;SDS011;30157;55.512;37.764;2024-01-16T04:57:55;23.50;;;12.27;;
44197;SDS011;30157;55.512;37.764;2024-01-16T05:00:22;24.70;;;12.60;;
44197;SDS011;30157;55.512;37.764;2024-01-16T05:02:51;23.92;;;12.98;;
44197;SDS011;30157;55.512;37.764;2024-01-16T05:05:17;22.55;;;11.25;;
44197;SDS011;30157;55.512;37.764;2024-01-16T05:07:43;25.52;;;12.90;;
44197;SDS011;30157;55.512;37.764;2024-01-16T05:10:12;21.77;;;11.95;;
44197;SDS011;30157;55.512;37.764;2024-01-16T05:12:41;25.92;;;12.50;;
44197;SDS011;30157;55.512;37.764;2024-01-16T05:15:07;26.45;;;13.20;;
44197;SDS011;30157;55.512;37.764;2024-01-16T05:17:34;22.75;;;11.90;;
44197;SDS011;30157;55.512;37.764;2024-01-16T05:20:00;25.85;;;11.93;;
44197;SDS011;30157;55.512;37.764;2024-01-16T05:22:29;22.70;;;12.07;;
44197;SDS011;30157;55.512;37.764;2024-01-16T05:24:55;24.48;;;13.45;;
44197;SDS011;30157;55.512;37.764;2024-01-16T05:27:21;28.20;;;13.60;;
44197;SDS011;30157;55.512;37.764;2024-01-16T05:29:47;23.98;;;12.70;;
44197;SDS011;30157;55.512;37.764;2024-01-16T05:32:16;23.85;;;12.60;;
44197;SDS011;30157;55.512;37.764;2024-01-16T05:34:42;25.33;;;12.25;;
44197;SDS011;30157;55.512;37.764;2024-01-16T05:37:08;26.25;;;14.18;;
44197;SDS011;30157;55.512;37.764;2024-01-16T05:39:33;21.15;;;11.75;;
44197;SDS011;30157;55.512;37.764;2024-01-16T05:41:59;25.88;;;12.85;;
44197;SDS011;30157;55.512;37.764;2024-01-16T05:44:25;22.80;;;11.75;;
44197;SDS011;30157;55.512;37.764;2024-01-16T05:46:50;26.50;;;14.43;;
44197;SDS011;30157;55.512;37.764;2024-01-16T05:49:16;26.02;;;13.35;;
44197;SDS011;30157;55.512;37.764;2024-01-16T05:51:42;26.13;;;13.52;;
44197;SDS011;30157;55.512;37.764;2024-01-16T05:54:07;23.35;;;13.50;;
44197;SDS011;30157;55.512;37.764;2024-01-16T05:56:33;29.08;;;13.32;;
44197;SDS011;30157;55.512;37.764;2024-01-16T05:58:59;24.15;;;13.20;;
44197;SDS011;30157;55.512;37.764;2024-01-16T06:01:25;24.05;;;13.52;;
44197;SDS011;30157;55.512;37.764;2024-01-16T06:03:52;25.55;;;13.02;;
44197;SDS011;30157;55.512;37.764;2024-01-16T06:06:18;27.77;;;13.30;;
44197;SDS011;30157;55.512;37.764;2024-01-16T06:08:44;27.23;;;13.77;;
44197;SDS011;30157;55.512;37.764;2024-01-16T06:11:11;27.95;;;13.38;;
44197;SDS011;30157;55.512;37.764;2024-01-16T06:13:38;26.10;;;13.15;;
44197;SDS011;30157;55.512;37.764;2024-01-16T06:16:05;27.90;;;14.13;;
44197;SDS011;30157;55.512;37.764;2024-01-16T06:18:33;27.83;;;13.45;;
44197;SDS011;30157;55.512;37.764;2024-01-16T06:21:00;24.42;;;13.13;;
44197;SDS011;30157;55.512;37.764;2024-01-16T06:23:26;25.48;;;13.68;;
44197;SDS011;30157;55.512;37.764;2024-01-16T06:25:51;28.63;;;15.38;;
44197;SDS011;30157;55.512;37.764;2024-01-16T06:28:17;28.38;;;13.63;;
44197;SDS011;30157;55.512;37.764;2024-01-16T06:30:43;31.45;;;14.73;;
44197;SDS011;30157;55.512;37.764;2024-01-16T06:33:08;28.00;;;13.68;;
44197;SDS011;30157;55.512;37.764;2024-01-16T06:35:34;28.73;;;13.95;;
44197;SDS011;30157;55.512;37.764;2024-01-16T06:38:01;27.38;;;13.57;;
44197;SDS011;30157;55.512;37.764;2024-01-16T06:40:27;26.80;;;13.63;;
44197;SDS011;30157;55.512;37.764;2024-01-16T06:42:52;29.13;;;14.52;;
44197;SDS011;30157;55.512;37.764;2024-01-16T06:45:18;25.23;;;13.35;;
44197;SDS011;30157;55.512;37.764;2024-01-16T06:47:44;26.67;;;13.75;;
44197;SDS011;30157;55.512;37.764;2024-01-16T06:50:10;27.40;;;13.60;;
44197;SDS011;30157;55.512;37.764;2024-01-16T06:52:36;28.70;;;14.35;;
44197;SDS011;30157;55.512;37.764;2024-01-16T06:55:01;28.33;;;14.55;;
44197;SDS011;30157;55.512;37.764;2024-01-16T06:57:29;26.40;;;13.23;;
44197;SDS011;30157;55.512;37.764;2024-01-16T06:59:55;29.33;;;15.20;;
44197;SDS011;30157;55.512;37.764;2024-01-16T07:02:20;25.50;;;12.80;;
44197;SDS011;30157;55.512;37.764;2024-01-16T07:04:47;33.47;;;14.57;;
44197;SDS011;30157;55.512;37.764;2024-01-16T07:07:13;29.50;;;14.00;;
44197;SDS011;30157;55.512;37.764;2024-01-16T07:09:39;29.17;;;15.18;;
44197;SDS011;30157;55.512;37.764;2024-01-16T07:12:04;31.20;;;15.50;;
44197;SDS011;30157;55.512;37.764;2024-01-16T07:14:31;26.15;;;13.45;;
44197;SDS011;30157;55.512;37.764;2024-01-16T07:16:58;29.73;;;12.98;;
44197;SDS011;30157;55.512;37.764;2024-01-16T07:19:24;28.95;;;14.18;;
44197;SDS011;30157;55.512;37.764;2024-01-16T07:21:50;30.02;;;13.77;;
44197;SDS011;30157;55.512;37.764;2024-01-16T07:24:15;28.42;;;14.02;;
44197;SDS011;30157;55.512;37.764;2024-01-16T07:26:41;28.70;;;14.63;;
44197;SDS011;30157;55.512;37.764;2024-01-16T07:29:07;30.42;;;13.85;;
44197;SDS011;30157;55.512;37.764;2024-01-16T07:31:32;25.88;;;14.25;;
44197;SDS011;30157;55.512;37.764;2024-01-16T07:33:58;27.52;;;14.00;;
44197;SDS011;30157;55.512;37.764;2024-01-16T07:36:24;26.20;;;14.38;;
44197;SDS011;30157;55.512;37.764;2024-01-16T07:38:49;23.98;;;13.18;;
44197;SDS011;30157;55.512;37.764;2024-01-16T07:41:15;25.40;;;13.32;;
44197;SDS011;30157;55.512;37.764;2024-01-16T07:43:41;27.30;;;12.45;;
44197;SDS011;30157;55.512;37.764;2024-01-16T07:46:06;25.17;;;13.07;;
44197;SDS011;30157;55.512;37.764;2024-01-16T07:48:32;26.52;;;13.38;;
44197;SDS011;30157;55.512;37.764;2024-01-16T07:50:58;25.55;;;13.18;;
44197;SDS011;30157;55.512;37.764;2024-01-16T07:53:24;27.13;;;14.05;;
44197;SDS011;30157;55.512;37.764;2024-01-16T07:55:53;23.88;;;12.95;;
44197;SDS011;30157;55.512;37.764;2024-01-16T07:58:20;27.85;;;12.68;;
44197;SDS011;30157;55.512;37.764;2024-01-16T08:00:46;26.50;;;13.80;;
44197;SDS011;30157;55.512;37.764;2024-01-16T08:03:11;26.95;;;14.13;;
44197;SDS011;30157;55.512;37.764;2024-01-16T08:05:37;26.23;;;13.88;;
44197;SDS011;30157;55.512;37.764;2024-01-16T08:08:04;25.38;;;13.38;;
44197;SDS011;30157;55.512;37.764;2024-01-16T08:10:30;26.65;;;13.68;;
44197;SDS011;30157;55.512;37.764;2024-01-16T08:12:56;24.90;;;13.27;;
44197;SDS011;30157;55.512;37.764;2024-01-16T08:15:22;25.98;;;12.57;;
44197;SDS011;30157;55.512;37.764;2024-01-16T08:17:47;24.77;;;13.10;;
44197;SDS011;30157;55.512;37.764;2024-01-16T08:20:13;24.33;;;12.32;;
44197;SDS011;30157;55.512;37.764;2024-01-16T08:22:39;20.70;;;10.85;;
44197;SDS011;30157;55.512;37.764;2024-01-16T08:25:05;25.02;;;13.65;;
44197;SDS011;30157;55.512;37.764;2024-01-16T08:27:31;23.48;;;12.40;;
44197;SDS011;30157;55.512;37.764;2024-01-16T08:29:57;22.30;;;11.13;;
44197;SDS011;30157;55.512;37.764;2024-01-16T08:32:22;23.70;;;11.32;;
44197;SDS011;30157;55.512;37.764;2024-01-16T08:34:48;24.40;;;12.43;;
44197;SDS011;30157;55.512;37.764;2024-01-16T08:37:14;24.42;;;12.07;;
44197;SDS011;30157;55.512;37.764;2024-01-16T08:39:40;22.17;;;11.95;;
44197;SDS011;30157;55.512;37.764;2024-01-16T08:42:05;25.60;;;12.95;;
44197;SDS011;30157;55.512;37.764;2024-01-16T08:44:31;23.80;;;12.05;;
44197;SDS011;30157;55.512;37.764;2024-01-16T08:46:57;21.33;;;10.85;;
44197;SDS011;30157;55.512;37.764;2024-01-16T08:49:24;19.95;;;11.07;;
44197;SDS011;30157;55.512;37.764;2024-01-16T08:51:50;23.17;;;11.98;;
44197;SDS011;30157;55.512;37.764;2024-01-16T08:54:16;23.27;;;11.50;;
44197;SDS011;30157;55.512;37.764;2024-01-16T08:56:42;21.40;;;10.20;;
44197;SDS011;30157;55.512;37.764;2024-01-16T08:59:07;20.52;;;10.38;;
44197;SDS011;30157;55.512;37.764;2024-01-16T09:01:35;25.00;;;11.68;;
44197;SDS011;30157;55.512;37.764;2024-01-16T09:04:01;19.85;;;11.82;;
44197;SDS011;30157;55.512;37.764;2024-01-16T09:06:26;22.52;;;11.27;;
44197;SDS011;30157;55.512;37.764;2024-01-16T09:08:52;22.23;;;11.77;;
44197;SDS011;30157;55.512;37.764;2024-01-16T09:11:18;21.60;;;11.35;;
44197;SDS011;30157;55.512;37.764;2024-01-16T09:13:43;23.10;;;10.52;;
44197;SDS011;30157;55.512;37.764;2024-01-16T09:16:09;23.15;;;11.27;;
44197;SDS011;30157;55.512;37.764;2024-01-16T09:18:35;20.88;;;11.20;;
44197;SDS011;30157;55.512;37.764;2024-01-16T09:21:01;18.77;;;10.38;;
44197;SDS011;30157;55.512;37.764;2024-01-16T09:23:27;20.75;;;10.10;;
44197;SDS011;30157;55.512;37.764;2024-01-16T09:25:52;23.80;;;12.07;;
44197;SDS011;30157;55.512;37.764;2024-01-16T09:28:18;21.25;;;11.38;;
44197;SDS011;30157;55.512;37.764;2024-01-16T09:30:44;19.60;;;10.63;;
44197;SDS011;30157;55.512;37.764;2024-01-16T09:33:10;18.02;;;10.73;;
44197;SDS011;30157;55.512;37.764;2024-01-16T09:35:36;20.80;;;10.80;;
44197;SDS011;30157;55.512;37.764;2024-01-16T09:38:03;20.48;;;10.90;;
44197;SDS011;30157;55.512;37.764;2024-01-16T09:40:30;21.73;;;11.50;;
44197;SDS011;30157;55.512;37.764;2024-01-16T09:42:56;21.65;;;10.52;;
44197;SDS011;30157;55.512;37.764;2024-01-16T09:45:22;20.80;;;11.23;;
44197;SDS011;30157;55.512;37.764;2024-01-16T09:47:49;22.42;;;11.35;;
44197;SDS011;30157;55.512;37.764;2024-01-16T09:50:18;20.77;;;11.38;;
44197;SDS011;30157;55.512;37.764;2024-01-16T09:52:47;22.90;;;11.68;;
44197;SDS011;30157;55.512;37.764;2024-01-16T09:55:13;20.88;;;10.98;;
44197;SDS011;30157;55.512;37.764;2024-01-16T09:57:40;22.58;;;12.05;;
44197;SDS011;30157;55.512;37.764;2024-01-16T10:00:07;23.48;;;12.13;;
44197;SDS011;30157;55.512;37.764;2024-01-16T10:02:38;23.15;;;11.40;;
44197;SDS011;30157;55.512;37.764;2024-01-16T10:05:06;22.63;;;11.35;;
44197;SDS011;30157;55.512;37.764;2024-01-16T10:07:34;21.13;;;11.80;;
44197;SDS011;30157;55.512;37.764;2024-01-16T10:10:05;21.83;;;11.10;;
44197;SDS011;30157;55.512;37.764;2024-01-16T10:12:32;20.60;;;11.45;;
44197;SDS011;30157;55.512;37.764;2024-01-16T10:14:58;18.83;;;10.15;;
44197;SDS011;30157;55.512;37.764;2024-01-16T10:17:36;23.50;;;12.68;;
44197;SDS011;30157;55.512;37.764;2024-01-16T10:20:07;21.23;;;12.02;;
44197;SDS011;30157;55.512;37.764;2024-01-16T10:22:38;20.00;;;11.32;;
44197;SDS011;30157;55.512;37.764;2024-01-16T10:25:17;18.90;;;9.55;;
44197;SDS011;30157;55.512;37.764;2024-01-16T10:27:45;20.27;;;9.90;;
44197;SDS011;30157;55.512;37.764;2024-01-16T10:30:11;21.75;;;11.43;;
44197;SDS011;30157;55.512;37.764;2024-01-16T10:32:38;25.77;;;11.35;;
44197;SDS011;30157;55.512;37.764;2024-01-16T10:35:06;20.95;;;10.98;;
44197;SDS011;30157;55.512;37.764;2024-01-16T10:40:20;23.83;;;11.93;;
44197;SDS011;30157;55.512;37.764;2024-01-16T10:43:08;24.38;;;12.02;;
44197;SDS011;30157;55.512;37.764;2024-01-16T10:45:33;18.63;;;10.52;;
44197;SDS011;30157;55.512;37.764;2024-01-16T10:48:03;21.67;;;11.48;;
44197;SDS011;30157;55.512;37.764;2024-01-16T10:50:33;23.92;;;11.77;;
44197;SDS011;30157;55.512;37.764;2024-01-16T10:53:00;20.55;;;10.68;;
44197;SDS011;30157;55.512;37.764;2024-01-16T10:55:30;19.90;;;10.57;;
44197;SDS011;30157;55.512;37.764;2024-01-16T10:57:59;21.30;;;11.68;;
44197;SDS011;30157;55.512;37.764;2024-01-16T11:00:30;21.35;;;11.60;;
44197;SDS011;30157;55.512;37.764;2024-01-16T11:05:31;22.42;;;11.43;;
44197;SDS011;30157;55.512;37.764;2024-01-16T11:08:00;21.55;;;10.48;;
44197;SDS011;30157;55.512;37.764;2024-01-16T11:10:29;21.27;;;11.07;;
44197;SDS011;30157;55.512;37.764;2024-01-16T11:12:59;20.92;;;11.23;;
44197;SDS011;30157;55.512;37.764;2024-01-16T11:15:27;21.75;;;11.02;;
44197;SDS011;30157;55.512;37.764;2024-01-16T11:17:56;22.00;;;11.10;;
44197;SDS011;30157;55.512;37.764;2024-01-16T11:20:23;22.40;;;10.88;;
44197;SDS011;30157;55.512;37.764;2024-01-16T11:22:50;23.98;;;12.73;;
44197;SDS011;30157;55.512;37.764;2024-01-16T11:25:19;17.85;;;10.73;;
44197;SDS011;30157;55.512;37.764;2024-01-16T11:27:46;20.60;;;11.55;;
44197;SDS011;30157;55.512;37.764;2024-01-16T11:30:28;20.13;;;10.25;;
44197;SDS011;30157;55.512;37.764;2024-01-16T11:32:56;22.95;;;11.40;;
44197;SDS011;30157;55.512;37.764;2024-01-16T11:35:32;23.02;;;12.52;;
44197;SDS011;30157;55.512;37.764;2024-01-16T11:38:11;19.85;;;10.25;;
44197;SDS011;30157;55.512;37.764;2024-01-16T11:40:41;19.73;;;10.45;;
44197;SDS011;30157;55.512;37.764;2024-01-16T11:45:58;20.70;;;10.85;;
44197;SDS011;30157;55.512;37.764;2024-01-16T11:48:30;22.65;;;11.45;;
44197;SDS011;30157;55.512;37.764;2024-01-16T11:50:56;17.73;;;10.32;;
44197;SDS011;30157;55.512;37.764;2024-01-16T12:01:22;20.60;;;11.38;;
44197;SDS011;30157;55.512;37.764;2024-01-16T12:04:01;21.20;;;11.02;;
44197;SDS011;30157;55.512;37.764;2024-01-16T12:06:28;17.42;;;9.77;;
44197;SDS011;30157;55.512;37.764;2024-01-16T12:08:54;18.83;;;10.30;;
44197;SDS011;30157;55.512;37.764;2024-01-16T12:11:39;22.58;;;11.73;;
44197;SDS011;30157;55.512;37.764;2024-01-16T12:14:08;22.45;;;12.60;;
44197;SDS011;30157;55.512;37.764;2024-01-16T12:16:34;23.77;;;10.98;;
44197;SDS011;30157;55.512;37.764;2024-01-16T12:19:08;23.08;;;11.30;;
44197;SDS011;30157;55.512;37.764;2024-01-16T12:21:38;18.85;;;11.02;;
44197;SDS011;30157;55.512;37.764;2024-01-16T12:24:05;19.40;;;11.30;;
44197;SDS011;30157;55.512;37.764;2024-01-16T12:26:31;23.80;;;11.55;;
44197;SDS011;30157;55.512;37.764;2024-01-16T12:28:57;19.55;;;10.20;;
44197;SDS011;30157;55.512;37.764;2024-01-16T12:31:23;26.17;;;12.00;;
44197;SDS011;30157;55.512;37.764;2024-01-16T12:33:52;22.48;;;11.63;;
44197;SDS011;30157;55.512;37.764;2024-01-16T12:36:18;24.33;;;13.27;;
44197;SDS011;30157;55.512;37.764;2024-01-16T12:38:44;22.77;;;12.13;;
44197;SDS011;30157;55.512;37.764;2024-01-16T12:41:10;20.52;;;10.55;;
44197;SDS011;30157;55.512;37.764;2024-01-16T12:43:37;24.15;;;12.70;;
44197;SDS011;30157;55.512;37.764;2024-01-16T12:46:04;19.40;;;10.63;;
44197;SDS011;30157;55.512;37.764;2024-01-16T12:48:32;20.05;;;10.57;;
44197;SDS011;30157;55.512;37.764;2024-01-16T12:51:03;25.52;;;13.43;;
44197;SDS011;30157;55.512;37.764;2024-01-16T12:53:29;22.23;;;12.27;;
44197;SDS011;30157;55.512;37.764;2024-01-16T12:56:00;22.42;;;11.50;;
44197;SDS011;30157;55.512;37.764;2024-01-16T12:58:35;23.00;;;12.25;;
44197;SDS011;30157;55.512;37.764;2024-01-16T13:01:21;22.25;;;12.00;;
44197;SDS011;30157;55.512;37.764;2024-01-16T13:03:47;22.67;;;11.40;;
44197;SDS011;30157;55.512;37.764;2024-01-16T13:06:17;24.92;;;12.85;;
44197;SDS011;30157;55.512;37.764;2024-01-16T13:08:45;23.38;;;12.50;;
44197;SDS011;30157;55.512;37.764;2024-01-16T13:11:14;25.20;;;13.90;;
44197;SDS011;30157;55.512;37.764;2024-01-16T13:13:45;25.83;;;12.98;;
44197;SDS011;30157;55.512;37.764;2024-01-16T13:16:13;25.90;;;14.02;;
44197;SDS011;30157;55.512;37.764;2024-01-16T13:18:40;23.98;;;12.68;;
44197;SDS011;30157;55.512;37.764;2024-01-16T13:21:06;26.88;;;13.57;;
44197;SDS011;30157;55.512;37.764;2024-01-16T13:23:32;23.80;;;12.15;;
44197;SDS011;30157;55.512;37.764;2024-01-16T13:26:02;24.33;;;12.90;;
44197;SDS011;30157;55.512;37.764;2024-01-16T13:28:28;24.48;;;12.95;;
44197;SDS011;30157;55.512;37.764;2024-01-16T13:30:54;24.15;;;12.80;;
44197;SDS011;30157;55.512;37.764;2024-01-16T13:33:25;22.92;;;12.20;;
44197;SDS011;30157;55.512;37.764;2024-01-16T13:35:53;23.30;;;11.77;;
44197;SDS011;30157;55.512;37.764;2024-01-16T13:38:20;26.95;;;13.55;;
44197;SDS011;30157;55.512;37.764;2024-01-16T13:40:47;22.13;;;11.68;;
44197;SDS011;30157;55.512;37.764;2024-01-16T13:43:13;25.45;;;12.93;;
44197;SDS011;30157;55.512;37.764;2024-01-16T13:45:38;22.52;;;13.23;;
44197;SDS011;30157;55.512;37.764;2024-01-16T13:48:05;22.67;;;12.63;;
44197;SDS011;30157;55.512;37.764;2024-01-16T13:50:32;23.33;;;12.27;;
44197;SDS011;30157;55.512;37.764;2024-01-16T13:53:01;24.58;;;11.95;;
44197;SDS011;30157;55.512;37.764;2024-01-16T13:55:28;22.90;;;13.32;;
44197;SDS011;30157;55.512;37.764;2024-01-16T13:57:55;23.20;;;12.05;;
44197;SDS011;30157;55.512;37.764;2024-01-16T14:00:21;23.45;;;13.00;;
44197;SDS011;30157;55.512;37.764;2024-01-16T14:02:47;25.80;;;13.45;;
44197;SDS011;30157;55.512;37.764;2024-01-16T14:05:15;25.10;;;12.85;;
44197;SDS011;30157;55.512;37.764;2024-01-16T14:07:52;33.00;;;14.88;;
44197;SDS011;30157;55.512;37.764;2024-01-16T14:10:19;24.17;;;12.73;;
44197;SDS011;30157;55.512;37.764;2024-01-16T14:12:47;21.05;;;12.13;;
44197;SDS011;30157;55.512;37.764;2024-01-16T14:15:14;22.63;;;12.23;;
44197;SDS011;30157;55.512;37.764;2024-01-16T14:17:42;26.08;;;13.77;;
44197;SDS011;30157;55.512;37.764;2024-01-16T14:20:12;22.75;;;12.00;;
44197;SDS011;30157;55.512;37.764;2024-01-16T14:22:46;21.85;;;12.23;;
44197;SDS011;30157;55.512;37.764;2024-01-16T14:25:12;28.60;;;14.93;;